^^
Datos históricos de la estación: Murcia-Puente Tocinos
Diario Informe para Marzo 6, 2019 Unidades:  Ambas    Inglés   Métrico
Diario Semanal Mensual Anual Configurable
  Máximo: Mínimo: Media:
Temperatura: 72.9 °F /  22.7 °C 54.1 °F /  12.3 °C 61.9 °F /  16.6 °C
Punto de rocio: 55.8 °F /  13.2 °C 39 °F /  3.9 °C 50.9 °F /  10.5 °C
Humedad: 96% 32% 72%
Velocidad viento: 13.5mph /  21.7km/h - 4.7mph /  7.6km/h
Racha viento: 29mph /  46.7km/h - -
Viento- - SSE
Presión: 30 in /  1014.5 hPa 29.7 in /  1004.3 hPa -
Precipitación: 0 in /  0.0 mm    
Historical Graphs
 
 
Tabla de datos para Marzo 6, 2019
Hora Temperatura Punto de rocio Presión Viento Velocidad viento Racha viento Humedad Intensidad lluvia(por hora) Nubes
00:00 56.8 °F /  13.8 °C 54 °F /  12.2 °C 30in /  1014.5hPa NE 3mph /  4.8km/h 6mph /  9.7km/h 90% 0in /  0.0mm CLR
00:05 56.8 °F /  13.8 °C 54 °F /  12.2 °C 30in /  1014.2hPa NE 3.1mph /  5.0km/h 5.2mph /  8.4km/h 90% 0in /  0.0mm CLR
00:10 56.8 °F /  13.8 °C 54 °F /  12.2 °C 30in /  1014.2hPa NE 2.9mph /  4.7km/h 4.6mph /  7.4km/h 90% 0in /  0.0mm CLR
00:15 56.8 °F /  13.8 °C 54.1 °F /  12.3 °C 30in /  1014.2hPa NE 2.9mph /  4.7km/h 6.2mph /  10.0km/h 91% 0in /  0.0mm CLR
00:20 56.8 °F /  13.8 °C 54.5 °F /  12.5 °C 29.9in /  1014.1hPa NE 4mph /  6.4km/h 6.9mph /  11.1km/h 92% 0in /  0.0mm CLR
00:25 56.8 °F /  13.8 °C 54.5 °F /  12.5 °C 29.9in /  1014.1hPa ENE 4mph /  6.4km/h 4.6mph /  7.4km/h 92% 0in /  0.0mm CLR
00:30 56.8 °F /  13.8 °C 54.5 °F /  12.5 °C 29.9in /  1014.1hPa NNE 4.7mph /  7.6km/h 9.2mph /  14.8km/h 92% 0in /  0.0mm CLR
00:35 56.7 °F /  13.7 °C 54.3 °F /  12.4 °C 29.9in /  1013.8hPa NE 4.7mph /  7.6km/h 6.9mph /  11.1km/h 92% 0in /  0.0mm CLR
00:40 56.5 °F /  13.6 °C 54.5 °F /  12.5 °C 29.9in /  1013.8hPa NE 5.4mph /  8.7km/h 5.8mph /  9.3km/h 93% 0in /  0.0mm CLR
00:45 56.3 °F /  13.5 °C 54.3 °F /  12.4 °C 29.9in /  1013.8hPa NNE 5.4mph /  8.7km/h 6.4mph /  10.3km/h 93% 0in /  0.0mm CLR
00:50 56.1 °F /  13.4 °C 54.1 °F /  12.3 °C 29.9in /  1013.8hPa NNE 4mph /  6.4km/h 5.8mph /  9.3km/h 93% 0in /  0.0mm CLR
00:55 56.1 °F /  13.4 °C 54.1 °F /  12.3 °C 29.9in /  1013.8hPa NE 4mph /  6.4km/h 4.6mph /  7.4km/h 93% 0in /  0.0mm CLR
01:00 56.1 °F /  13.4 °C 54.1 °F /  12.3 °C 29.9in /  1013.8hPa NNE 3mph /  4.8km/h 6mph /  9.7km/h 93% 0in /  0.0mm CLR
01:05 55.9 °F /  13.3 °C 54.1 °F /  12.3 °C 29.9in /  1013.7hPa North 3.6mph /  5.8km/h 4.6mph /  7.4km/h 94% 0in /  0.0mm CLR
01:10 56.1 °F /  13.4 °C 54.3 °F /  12.4 °C 29.9in /  1013.7hPa NE 3.1mph /  5.0km/h 5.2mph /  8.4km/h 94% 0in /  0.0mm CLR
01:15 56.1 °F /  13.4 °C 54.3 °F /  12.4 °C 29.9in /  1013.7hPa NE 3.1mph /  5.0km/h 6.9mph /  11.1km/h 94% 0in /  0.0mm CLR
01:20 56.1 °F /  13.4 °C 54.3 °F /  12.4 °C 29.9in /  1013.7hPa NNW 4.3mph /  6.9km/h 8.1mph /  13.0km/h 94% 0in /  0.0mm CLR
01:25 56.1 °F /  13.4 °C 54.7 °F /  12.6 °C 29.9in /  1013.7hPa NE 4.3mph /  6.9km/h 4.6mph /  7.4km/h 95% 0in /  0.0mm CLR
01:30 56.1 °F /  13.4 °C 54.7 °F /  12.6 °C 29.9in /  1013.7hPa NE 4.3mph /  6.9km/h 3.5mph /  5.6km/h 95% 0in /  0.0mm CLR
01:35 56.3 °F /  13.5 °C 54.9 °F /  12.7 °C 29.9in /  1013.5hPa NE 4.3mph /  6.9km/h 5.2mph /  8.4km/h 95% 0in /  0.0mm CLR
01:40 56.1 °F /  13.4 °C 54.7 °F /  12.6 °C 29.9in /  1013.5hPa NE 3mph /  4.8km/h 7mph /  11.3km/h 95% 0in /  0.0mm CLR
01:45 56.1 °F /  13.4 °C 54.7 °F /  12.6 °C 29.9in /  1013.5hPa NE 3.1mph /  5.0km/h 4.7mph /  7.6km/h 95% 0in /  0.0mm CLR
01:50 56.1 °F /  13.4 °C 54.7 °F /  12.6 °C 29.9in /  1013.1hPa ENE 3.6mph /  5.8km/h 6.9mph /  11.1km/h 95% 0in /  0.0mm CLR
01:55 55.9 °F /  13.3 °C 54.5 °F /  12.5 °C 29.9in /  1013.1hPa NNE 3.6mph /  5.8km/h 6.9mph /  11.1km/h 95% 0in /  0.0mm CLR
02:00 55.9 °F /  13.3 °C 54.5 °F /  12.5 °C 29.9in /  1013.1hPa NE 5mph /  8.0km/h 6mph /  9.7km/h 95% 0in /  0.0mm CLR
02:05 55.9 °F /  13.3 °C 54.5 °F /  12.5 °C 29.9in /  1013.1hPa NE 4mph /  6.4km/h 3.5mph /  5.6km/h 95% 0in /  0.0mm CLR
02:10 55.9 °F /  13.3 °C 54.5 °F /  12.5 °C 29.9in /  1013.1hPa NE 2.4mph /  3.9km/h 5.8mph /  9.3km/h 95% 0in /  0.0mm CLR
02:15 55.8 °F /  13.2 °C 54.3 °F /  12.4 °C 29.9in /  1013.1hPa NE 2.4mph /  3.9km/h 5.8mph /  9.3km/h 95% 0in /  0.0mm CLR
02:20 55.6 °F /  13.1 °C 54.1 °F /  12.3 °C 29.9in /  1012.9hPa East 4mph /  6.4km/h 5.2mph /  8.4km/h 95% 0in /  0.0mm CLR
02:25 55.2 °F /  12.9 °C 53.8 °F /  12.1 °C 29.9in /  1012.9hPa ENE 4mph /  6.4km/h 4.7mph /  7.6km/h 95% 0in /  0.0mm CLR
02:30 55.2 °F /  12.9 °C 53.8 °F /  12.1 °C 29.9in /  1012.9hPa ENE 3.1mph /  5.0km/h 4.6mph /  7.4km/h 95% 0in /  0.0mm CLR
02:35 55 °F /  12.8 °C 53.6 °F /  12.0 °C 29.9in /  1012.7hPa ESE 3.1mph /  5.0km/h 5.8mph /  9.3km/h 95% 0in /  0.0mm CLR
02:40 54.9 °F /  12.7 °C 53.4 °F /  11.9 °C 29.9in /  1012.7hPa ENE 2.4mph /  3.9km/h 4.6mph /  7.4km/h 95% 0in /  0.0mm CLR
02:45 54.9 °F /  12.7 °C 53.4 °F /  11.9 °C 29.9in /  1012.7hPa ENE 2.4mph /  3.9km/h 4.6mph /  7.4km/h 95% 0in /  0.0mm CLR
02:50 54.9 °F /  12.7 °C 53.4 °F /  11.9 °C 29.9in /  1012.6hPa ESE 2.4mph /  3.9km/h 4.6mph /  7.4km/h 95% 0in /  0.0mm CLR
02:55 54.9 °F /  12.7 °C 53.4 °F /  11.9 °C 29.9in /  1012.6hPa NE 2.4mph /  3.9km/h 4.6mph /  7.4km/h 95% 0in /  0.0mm CLR
03:00 54.9 °F /  12.7 °C 53.4 °F /  11.9 °C 29.9in /  1012.6hPa ENE 2mph /  3.2km/h 5mph /  8.0km/h 95% 0in /  0.0mm CLR
03:05 55 °F /  12.8 °C 53.6 °F /  12.0 °C 29.9in /  1012.3hPa East 2.4mph /  3.9km/h 4.6mph /  7.4km/h 95% 0in /  0.0mm CLR
03:10 55 °F /  12.8 °C 53.6 °F /  12.0 °C 29.9in /  1012.3hPa East 3.6mph /  5.8km/h 5.8mph /  9.3km/h 95% 0in /  0.0mm CLR
03:15 55 °F /  12.8 °C 53.6 °F /  12.0 °C 29.9in /  1012.3hPa ESE 3.6mph /  5.8km/h 5.8mph /  9.3km/h 95% 0in /  0.0mm CLR
03:20 55 °F /  12.8 °C 53.6 °F /  12.0 °C 29.9in /  1012.0hPa NE 3.1mph /  5.0km/h 4.6mph /  7.4km/h 95% 0in /  0.0mm CLR
03:25 55 °F /  12.8 °C 53.6 °F /  12.0 °C 29.9in /  1012.0hPa ESE 3.1mph /  5.0km/h 4.6mph /  7.4km/h 95% 0in /  0.0mm CLR
03:30 55 °F /  12.8 °C 54 °F /  12.2 °C 29.9in /  1012.0hPa ESE 2.9mph /  4.7km/h 2.3mph /  3.7km/h 96% 0in /  0.0mm CLR
03:35 55 °F /  12.8 °C 53.6 °F /  12.0 °C 29.9in /  1011.9hPa East 2.9mph /  4.7km/h 4.6mph /  7.4km/h 95% 0in /  0.0mm CLR
03:40 55 °F /  12.8 °C 53.6 °F /  12.0 °C 29.9in /  1011.9hPa ENE 1.8mph /  2.9km/h 3.5mph /  5.6km/h 95% 0in /  0.0mm CLR
03:45 55 °F /  12.8 °C 53.6 °F /  12.0 °C 29.9in /  1011.9hPa East 1.8mph /  2.9km/h 5.8mph /  9.3km/h 95% 0in /  0.0mm CLR
03:50 54.7 °F /  12.6 °C 53.2 °F /  11.8 °C 29.9in /  1011.5hPa East 2.9mph /  4.7km/h 4.6mph /  7.4km/h 95% 0in /  0.0mm CLR
03:55 54.7 °F /  12.6 °C 53.2 °F /  11.8 °C 29.9in /  1011.5hPa East 2.9mph /  4.7km/h 5.8mph /  9.3km/h 95% 0in /  0.0mm CLR
04:00 54.3 °F /  12.4 °C 52.9 °F /  11.6 °C 29.9in /  1011.5hPa ESE 3mph /  4.8km/h 7mph /  11.3km/h 95% 0in /  0.0mm CLR
04:05 54.3 °F /  12.4 °C 52.9 °F /  11.6 °C 29.9in /  1011.4hPa ESE 3.6mph /  5.8km/h 5.8mph /  9.3km/h 95% 0in /  0.0mm CLR
04:10 54.1 °F /  12.3 °C 52.7 °F /  11.5 °C 29.9in /  1011.4hPa SE 4mph /  6.4km/h 4.6mph /  7.4km/h 95% 0in /  0.0mm CLR
04:15 54.1 °F /  12.3 °C 52.7 °F /  11.5 °C 29.9in /  1011.4hPa SE 4mph /  6.4km/h 3.5mph /  5.6km/h 95% 0in /  0.0mm CLR
04:20 54.1 °F /  12.3 °C 53.1 °F /  11.7 °C 29.9in /  1011.1hPa SE 2.9mph /  4.7km/h 4.6mph /  7.4km/h 96% 0in /  0.0mm CLR
04:25 54.3 °F /  12.4 °C 53.2 °F /  11.8 °C 29.9in /  1011.1hPa SE 2.9mph /  4.7km/h 4.6mph /  7.4km/h 96% 0in /  0.0mm CLR
04:30 54.3 °F /  12.4 °C 52.9 °F /  11.6 °C 29.9in /  1011.1hPa SSE 2.9mph /  4.7km/h 5.2mph /  8.4km/h 95% 0in /  0.0mm CLR
04:35 54.3 °F /  12.4 °C 52.9 °F /  11.6 °C 29.9in /  1011.1hPa SSE 2.9mph /  4.7km/h 6.2mph /  10.0km/h 95% 0in /  0.0mm CLR
04:40 54.5 °F /  12.5 °C 53.1 °F /  11.7 °C 29.9in /  1011.1hPa SSE 4.3mph /  6.9km/h 4.6mph /  7.4km/h 95% 0in /  0.0mm CLR
04:45 54.5 °F /  12.5 °C 53.1 °F /  11.7 °C 29.9in /  1011.1hPa South 4.3mph /  6.9km/h 4.6mph /  7.4km/h 95% 0in /  0.0mm CLR
04:50 54.7 °F /  12.6 °C 53.2 °F /  11.8 °C 29.9in /  1011.1hPa South 3.1mph /  5.0km/h 1.2mph /  1.9km/h 95% 0in /  0.0mm CLR
04:55 54.7 °F /  12.6 °C 53.2 °F /  11.8 °C 29.9in /  1011.1hPa South 3.1mph /  5.0km/h   95% 0in /  0.0mm CLR
05:00 54.9 °F /  12.7 °C 53.4 °F /  11.9 °C 29.9in /  1011.1hPa Calm   5mph /  8.0km/h 95% 0in /  0.0mm CLR
05:05 54.9 °F /  12.7 °C 53.4 °F /  11.9 °C 29.9in /  1010.8hPa Calm   4.6mph /  7.4km/h 95% 0in /  0.0mm CLR
05:10 54.7 °F /  12.6 °C 53.1 °F /  11.7 °C 29.9in /  1010.8hPa SSE 3.6mph /  5.8km/h 5.8mph /  9.3km/h 94% 0in /  0.0mm CLR
05:15 54.7 °F /  12.6 °C 53.1 °F /  11.7 °C 29.9in /  1010.8hPa SSE 3.6mph /  5.8km/h 3.1mph /  5.0km/h 94% 0in /  0.0mm CLR
05:20 54.9 °F /  12.7 °C 53.2 °F /  11.8 °C 29.9in /  1010.9hPa SSE 2.4mph /  3.9km/h   94% 0in /  0.0mm CLR
05:25 54.9 °F /  12.7 °C 53.2 °F /  11.8 °C 29.9in /  1010.9hPa SSE 2.4mph /  3.9km/h 5.8mph /  9.3km/h 94% 0in /  0.0mm CLR
05:30 54.9 °F /  12.7 °C 53.2 °F /  11.8 °C 29.9in /  1010.9hPa SSE 2.4mph /  3.9km/h 4.6mph /  7.4km/h 94% 0in /  0.0mm CLR
05:35 54.9 °F /  12.7 °C 53.2 °F /  11.8 °C 29.8in /  1010.7hPa SE 2.4mph /  3.9km/h 4.6mph /  7.4km/h 94% 0in /  0.0mm CLR
05:40 54.9 °F /  12.7 °C 52.9 °F /  11.6 °C 29.8in /  1010.7hPa SSE 3.6mph /  5.8km/h 4.7mph /  7.6km/h 93% 0in /  0.0mm CLR
05:45 55 °F /  12.8 °C 53.1 °F /  11.7 °C 29.8in /  1010.7hPa SSE 3.6mph /  5.8km/h 4.6mph /  7.4km/h 93% 0in /  0.0mm CLR
05:50 55 °F /  12.8 °C 53.1 °F /  11.7 °C 29.9in /  1011.0hPa SSE 3.1mph /  5.0km/h 4.6mph /  7.4km/h 93% 0in /  0.0mm CLR
05:55 55 °F /  12.8 °C 53.1 °F /  11.7 °C 29.9in /  1011.0hPa SSE 3.1mph /  5.0km/h 2.3mph /  3.7km/h 93% 0in /  0.0mm CLR
06:00 55 °F /  12.8 °C 53.1 °F /  11.7 °C 29.9in /  1011.0hPa SSE 2mph /  3.2km/h 5mph /  8.0km/h 93% 0in /  0.0mm CLR
06:05 55.2 °F /  12.9 °C 53.2 °F /  11.8 °C 29.9in /  1010.9hPa SSE 2.4mph /  3.9km/h 4mph /  6.4km/h 93% 0in /  0.0mm CLR
06:10 55.2 °F /  12.9 °C 53.2 °F /  11.8 °C 29.9in /  1010.9hPa SSE 2.4mph /  3.9km/h 4.6mph /  7.4km/h 93% 0in /  0.0mm CLR
06:15 55.2 °F /  12.9 °C 53.2 °F /  11.8 °C 29.9in /  1010.9hPa ESE 2.4mph /  3.9km/h 4.3mph /  6.9km/h 93% 0in /  0.0mm CLR
06:20 55.2 °F /  12.9 °C 53.2 °F /  11.8 °C 29.9in /  1010.8hPa ESE 2.9mph /  4.7km/h 5.2mph /  8.4km/h 93% 0in /  0.0mm CLR
06:25 55.2 °F /  12.9 °C 53.2 °F /  11.8 °C 29.9in /  1010.8hPa East 2.9mph /  4.7km/h 4.6mph /  7.4km/h 93% 0in /  0.0mm CLR
06:30 55.2 °F /  12.9 °C 53.2 °F /  11.8 °C 29.9in /  1010.8hPa ESE 2.9mph /  4.7km/h 4.6mph /  7.4km/h 93% 0in /  0.0mm CLR
06:35 55 °F /  12.8 °C 53.1 °F /  11.7 °C 29.8in /  1010.6hPa ESE 2.9mph /  4.7km/h 3.5mph /  5.6km/h 93% 0in /  0.0mm CLR
06:40 55 °F /  12.8 °C 53.1 °F /  11.7 °C 29.8in /  1010.6hPa East 2.9mph /  4.7km/h 2.3mph /  3.7km/h 93% 0in /  0.0mm CLR
06:45 55 °F /  12.8 °C 53.1 °F /  11.7 °C 29.8in /  1010.6hPa East 2.9mph /  4.7km/h   93% 0in /  0.0mm CLR
06:50 55 °F /  12.8 °C 53.1 °F /  11.7 °C 29.8in /  1010.6hPa Calm     93% 0in /  0.0mm CLR
06:55 55 °F /  12.8 °C 53.1 °F /  11.7 °C 29.8in /  1010.6hPa Calm   4.6mph /  7.4km/h 93% 0in /  0.0mm CLR
07:00 55 °F /  12.8 °C 53.1 °F /  11.7 °C 29.8in /  1010.6hPa NE 2mph /  3.2km/h 3mph /  4.8km/h 93% 0in /  0.0mm CLR
07:05 54.9 °F /  12.7 °C 52.9 °F /  11.6 °C 29.8in /  1010.3hPa NE 1.8mph /  2.9km/h 3.5mph /  5.6km/h 93% 0in /  0.0mm CLR
07:10 54.9 °F /  12.7 °C 52.9 °F /  11.6 °C 29.8in /  1010.3hPa NE 2mph /  3.2km/h 3.1mph /  5.0km/h 93% 0in /  0.0mm CLR
07:15 54.9 °F /  12.7 °C 52.9 °F /  11.6 °C 29.8in /  1010.3hPa NE 2mph /  3.2km/h 3.5mph /  5.6km/h 93% 0in /  0.0mm CLR
07:20 54.9 °F /  12.7 °C 52.9 °F /  11.6 °C 29.8in /  1010.3hPa NE 2mph /  3.2km/h 3.5mph /  5.6km/h 93% 0in /  0.0mm CLR
07:25 54.7 °F /  12.6 °C 52.7 °F /  11.5 °C 29.8in /  1010.3hPa NE 2mph /  3.2km/h 5.8mph /  9.3km/h 93% 0in /  0.0mm CLR
07:30 54.7 °F /  12.6 °C 52.7 °F /  11.5 °C 29.8in /  1010.3hPa NE 2.9mph /  4.7km/h 4.7mph /  7.6km/h 93% 0in /  0.0mm CLR
07:35 54.5 °F /  12.5 °C 52.5 °F /  11.4 °C 29.8in /  1010.1hPa NE 2.9mph /  4.7km/h 2.9mph /  4.7km/h 93% 0in /  0.0mm CLR
07:40 54.7 °F /  12.6 °C 52.7 °F /  11.5 °C 29.8in /  1010.1hPa NE 2.9mph /  4.7km/h 4.7mph /  7.6km/h 93% 0in /  0.0mm CLR
07:45 54.7 °F /  12.6 °C 52.7 °F /  11.5 °C 29.8in /  1010.1hPa NNE 2.9mph /  4.7km/h 4.6mph /  7.4km/h 93% 0in /  0.0mm CLR
07:50 54.7 °F /  12.6 °C 52.7 °F /  11.5 °C 29.8in /  1010.1hPa NE 3.1mph /  5.0km/h 4.6mph /  7.4km/h 93% 0in /  0.0mm CLR
07:55 54.7 °F /  12.6 °C 52.7 °F /  11.5 °C 29.8in /  1010.1hPa NE 3.1mph /  5.0km/h 4.6mph /  7.4km/h 93% 0in /  0.0mm CLR
08:00 54.7 °F /  12.6 °C 53.1 °F /  11.7 °C 29.8in /  1010.1hPa NNE 2mph /  3.2km/h 5mph /  8.0km/h 94% 0in /  0.0mm CLR
08:05 54.7 °F /  12.6 °C 53.1 °F /  11.7 °C 29.8in /  1010.0hPa ENE 2.9mph /  4.7km/h 5.8mph /  9.3km/h 94% 0in /  0.0mm CLR
08:10 54.7 °F /  12.6 °C 53.1 °F /  11.7 °C 29.8in /  1010.0hPa NE 3.6mph /  5.8km/h 4.6mph /  7.4km/h 94% 0in /  0.0mm CLR
08:15 54.7 °F /  12.6 °C 53.1 °F /  11.7 °C 29.8in /  1010.0hPa NE 3.6mph /  5.8km/h 3.5mph /  5.6km/h 94% 0in /  0.0mm CLR
08:20 54.9 °F /  12.7 °C 53.2 °F /  11.8 °C 29.8in /  1010.2hPa NNW 2.4mph /  3.9km/h 2.3mph /  3.7km/h 94% 0in /  0.0mm CLR
08:25 54.9 °F /  12.7 °C 53.2 °F /  11.8 °C 29.8in /  1010.2hPa NNW 2.4mph /  3.9km/h   94% 0in /  0.0mm CLR
08:30 55 °F /  12.8 °C 53.2 °F /  11.8 °C 29.8in /  1010.2hPa Calm   3.5mph /  5.6km/h 94% 0in /  0.0mm CLR
08:35 55 °F /  12.8 °C 53.2 °F /  11.8 °C 29.8in /  1010.4hPa Calm   3.5mph /  5.6km/h 94% 0in /  0.0mm CLR
08:40 55 °F /  12.8 °C 53.2 °F /  11.8 °C 29.8in /  1010.4hPa NNW 2mph /  3.2km/h 2.3mph /  3.7km/h 94% 0in /  0.0mm CLR
08:45 55.2 °F /  12.9 °C 53.4 °F /  11.9 °C 29.8in /  1010.4hPa North 2mph /  3.2km/h 5.8mph /  9.3km/h 94% 0in /  0.0mm CLR
08:50 55.2 °F /  12.9 °C 53.4 °F /  11.9 °C 29.8in /  1010.4hPa North 2.4mph /  3.9km/h 4.6mph /  7.4km/h 94% 0in /  0.0mm CLR
08:55 55.2 °F /  12.9 °C 53.4 °F /  11.9 °C 29.8in /  1010.4hPa NNE 2.4mph /  3.9km/h 5.8mph /  9.3km/h 94% 0in /  0.0mm CLR
09:00 55.2 °F /  12.9 °C 53.4 °F /  11.9 °C 29.8in /  1010.4hPa NE 2mph /  3.2km/h 6mph /  9.7km/h 94% 0in /  0.0mm CLR
09:05 55.2 °F /  12.9 °C 53.4 °F /  11.9 °C 29.8in /  1010.3hPa NNE 2.9mph /  4.7km/h 4.6mph /  7.4km/h 94% 0in /  0.0mm CLR
09:10 55.2 °F /  12.9 °C 53.4 °F /  11.9 °C 29.8in /  1010.3hPa NNE 3.1mph /  5.0km/h 5.8mph /  9.3km/h 94% 0in /  0.0mm CLR
09:15 55.4 °F /  13.0 °C 53.8 °F /  12.1 °C 29.8in /  1010.3hPa North 3.1mph /  5.0km/h 4mph /  6.4km/h 94% 0in /  0.0mm CLR
09:20 55.6 °F /  13.1 °C 54 °F /  12.2 °C 29.8in /  1010.2hPa NE 2.4mph /  3.9km/h 5.8mph /  9.3km/h 94% 0in /  0.0mm CLR
09:25 55.6 °F /  13.1 °C 54 °F /  12.2 °C 29.8in /  1010.2hPa NNW 2.4mph /  3.9km/h 4.6mph /  7.4km/h 94% 0in /  0.0mm CLR
09:30 55.6 °F /  13.1 °C 54 °F /  12.2 °C 29.8in /  1010.2hPa North 3.6mph /  5.8km/h 4.6mph /  7.4km/h 94% 0in /  0.0mm CLR
09:35 55.8 °F /  13.2 °C 53.8 °F /  12.1 °C 29.8in /  1010.2hPa NNE 3.6mph /  5.8km/h 4.6mph /  7.4km/h 93% 0in /  0.0mm CLR
09:40 55.8 °F /  13.2 °C 53.8 °F /  12.1 °C 29.8in /  1010.2hPa NW 3.1mph /  5.0km/h 4.3mph /  6.9km/h 93% 0in /  0.0mm CLR
09:45 55.9 °F /  13.3 °C 54 °F /  12.2 °C 29.8in /  1010.2hPa NNW 3.1mph /  5.0km/h 5.2mph /  8.4km/h 93% 0in /  0.0mm CLR
09:50 56.1 °F /  13.4 °C 54.1 °F /  12.3 °C 29.8in /  1010.2hPa North 2.9mph /  4.7km/h 6.9mph /  11.1km/h 93% 0in /  0.0mm CLR
09:55 56.1 °F /  13.4 °C 53.8 °F /  12.1 °C 29.8in /  1010.2hPa ENE 2.9mph /  4.7km/h 8.1mph /  13.0km/h 92% 0in /  0.0mm CLR
10:00 56.3 °F /  13.5 °C 54 °F /  12.2 °C 29.8in /  1010.2hPa NNE 5mph /  8.0km/h 7mph /  11.3km/h 92% 0in /  0.0mm CLR
10:05 56.5 °F /  13.6 °C 54.1 °F /  12.3 °C 29.8in /  1010.1hPa NNE 4.3mph /  6.9km/h 6.9mph /  11.1km/h 92% 0in /  0.0mm CLR
10:10 56.7 °F /  13.7 °C 54.3 °F /  12.4 °C 29.8in /  1010.1hPa NE 4.3mph /  6.9km/h 6.9mph /  11.1km/h 92% 0in /  0.0mm CLR
10:15 56.8 °F /  13.8 °C 54.5 °F /  12.5 °C 29.8in /  1010.1hPa NE 4.3mph /  6.9km/h 5.8mph /  9.3km/h 92% 0in /  0.0mm CLR
10:20 57 °F /  13.9 °C 54.3 °F /  12.4 °C 29.8in /  1010.2hPa NNE 3.6mph /  5.8km/h 6.9mph /  11.1km/h 91% 0in /  0.0mm CLR
10:25 57.4 °F /  14.1 °C 54.9 °F /  12.7 °C 29.8in /  1010.2hPa NNE 3.6mph /  5.8km/h 6.9mph /  11.1km/h 91% 0in /  0.0mm CLR
10:30 57.6 °F /  14.2 °C 55 °F /  12.8 °C 29.8in /  1010.2hPa NE 4.3mph /  6.9km/h 4.6mph /  7.4km/h 91% 0in /  0.0mm CLR
10:35 57.7 °F /  14.3 °C 54.9 °F /  12.7 °C 29.8in /  1010.4hPa NNW 4.3mph /  6.9km/h 4.6mph /  7.4km/h 90% 0in /  0.0mm CLR
10:40 58.1 °F /  14.5 °C 54.9 °F /  12.7 °C 29.8in /  1010.4hPa NNW 3.1mph /  5.0km/h 5.8mph /  9.3km/h 89% 0in /  0.0mm CLR
10:45 58.3 °F /  14.6 °C 54.7 °F /  12.6 °C 29.8in /  1010.4hPa North 3.1mph /  5.0km/h 4.6mph /  7.4km/h 88% 0in /  0.0mm CLR
10:50 58.5 °F /  14.7 °C 54.7 °F /  12.6 °C 29.8in /  1010.3hPa NNE 3.6mph /  5.8km/h 2.3mph /  3.7km/h 87% 0in /  0.0mm CLR
10:55 58.6 °F /  14.8 °C 54.9 °F /  12.7 °C 29.8in /  1010.3hPa NW 3.6mph /  5.8km/h 3.1mph /  5.0km/h 87% 0in /  0.0mm CLR
11:00 58.8 °F /  14.9 °C 54.9 °F /  12.7 °C 29.8in /  1010.3hPa NNW 2mph /  3.2km/h 5mph /  8.0km/h 87% 0in /  0.0mm CLR
11:05 58.8 °F /  14.9 °C 54.7 °F /  12.6 °C 29.8in /  1010.1hPa NE 2mph /  3.2km/h 4.6mph /  7.4km/h 86% 0in /  0.0mm CLR
11:10 59 °F /  15.0 °C 54.9 °F /  12.7 °C 29.8in /  1010.1hPa NE 2.4mph /  3.9km/h 4.7mph /  7.6km/h 86% 0in /  0.0mm CLR
11:15 59.2 °F /  15.1 °C 54.7 °F /  12.6 °C 29.8in /  1010.1hPa ENE 2.4mph /  3.9km/h 5.8mph /  9.3km/h 85% 0in /  0.0mm CLR
11:20 59.2 °F /  15.1 °C 54.7 °F /  12.6 °C 29.8in /  1009.9hPa NNE 2.9mph /  4.7km/h 3.5mph /  5.6km/h 85% 0in /  0.0mm CLR
11:25 59.2 °F /  15.1 °C 54.7 °F /  12.6 °C 29.8in /  1009.9hPa NNW 2.9mph /  4.7km/h 4.6mph /  7.4km/h 85% 0in /  0.0mm CLR
11:30 59.4 °F /  15.2 °C 54.9 °F /  12.7 °C 29.8in /  1009.9hPa North 2mph /  3.2km/h 5mph /  8.0km/h 85% 0in /  0.0mm CLR
11:35 59.5 °F /  15.3 °C 54.7 °F /  12.6 °C 29.8in /  1009.8hPa North 2mph /  3.2km/h 4.6mph /  7.4km/h 84% 0in /  0.0mm CLR
11:40 59.7 °F /  15.4 °C 54.9 °F /  12.7 °C 29.8in /  1009.8hPa NNW 2.4mph /  3.9km/h 4.6mph /  7.4km/h 84% 0in /  0.0mm CLR
11:45 59.7 °F /  15.4 °C 54.5 °F /  12.5 °C 29.8in /  1009.8hPa NE 2.4mph /  3.9km/h 5.8mph /  9.3km/h 83% 0in /  0.0mm CLR
11:50 60.1 °F /  15.6 °C 54.9 °F /  12.7 °C 29.8in /  1009.7hPa NW 3.1mph /  5.0km/h 4.6mph /  7.4km/h 83% 0in /  0.0mm CLR
11:55 60.3 °F /  15.7 °C 55 °F /  12.8 °C 29.8in /  1009.7hPa NNW 3.1mph /  5.0km/h 4.6mph /  7.4km/h 83% 0in /  0.0mm CLR
12:00 60.6 °F /  15.9 °C 55.4 °F /  13.0 °C 29.8in /  1009.7hPa North 2mph /  3.2km/h 7mph /  11.3km/h 83% 0in /  0.0mm CLR
12:05 60.8 °F /  16.0 °C 55.2 °F /  12.9 °C 29.8in /  1009.5hPa NNW 2.9mph /  4.7km/h 5.8mph /  9.3km/h 82% 0in /  0.0mm CLR
12:10 61 °F /  16.1 °C 55 °F /  12.8 °C 29.8in /  1009.5hPa NNE 4mph /  6.4km/h 4.6mph /  7.4km/h 81% 0in /  0.0mm CLR
12:15 61.2 °F /  16.2 °C 55.2 °F /  12.9 °C 29.8in /  1009.5hPa NNE 4mph /  6.4km/h 8.1mph /  13.0km/h 81% 0in /  0.0mm CLR
12:20 61.3 °F /  16.3 °C 55 °F /  12.8 °C 29.8in /  1009.3hPa NNE 4.3mph /  6.9km/h 6.9mph /  11.1km/h 80% 0in /  0.0mm CLR
12:25 61.5 °F /  16.4 °C 55.2 °F /  12.9 °C 29.8in /  1009.3hPa NE 4.3mph /  6.9km/h 5.8mph /  9.3km/h 80% 0in /  0.0mm CLR
12:30 62.1 °F /  16.7 °C 55.6 °F /  13.1 °C 29.8in /  1009.3hPa NNW 4mph /  6.4km/h 4.6mph /  7.4km/h 79% 0in /  0.0mm CLR
12:35 62.8 °F /  17.1 °C 55.8 °F /  13.2 °C 29.8in /  1009.0hPa NE 4mph /  6.4km/h 5.2mph /  8.4km/h 78% 0in /  0.0mm CLR
12:40 63.3 °F /  17.4 °C 55.2 °F /  12.9 °C 29.8in /  1009.0hPa North 2.9mph /  4.7km/h 4.6mph /  7.4km/h 75% 0in /  0.0mm CLR
12:45 63.7 °F /  17.6 °C 55.2 °F /  12.9 °C 29.8in /  1009.0hPa North 2.9mph /  4.7km/h 8.1mph /  13.0km/h 74% 0in /  0.0mm CLR
12:50 63.9 °F /  17.7 °C 55.4 °F /  13.0 °C 29.8in /  1008.7hPa NNW 3.6mph /  5.8km/h 6.9mph /  11.1km/h 74% 0in /  0.0mm CLR
12:55 64.2 °F /  17.9 °C 55.4 °F /  13.0 °C 29.8in /  1008.7hPa ENE 3.6mph /  5.8km/h 6.9mph /  11.1km/h 73% 0in /  0.0mm CLR
13:00 64.4 °F /  18.0 °C 55.6 °F /  13.1 °C 29.8in /  1008.7hPa NE 5mph /  8.0km/h 7mph /  11.3km/h 73% 0in /  0.0mm CLR
13:05 64.6 °F /  18.1 °C 55.2 °F /  12.9 °C 29.8in /  1008.3hPa NE 4mph /  6.4km/h 4.6mph /  7.4km/h 72% 0in /  0.0mm CLR
13:10 64.9 °F /  18.3 °C 55.2 °F /  12.9 °C 29.8in /  1008.3hPa NE 3.1mph /  5.0km/h 5.9mph /  9.5km/h 71% 0in /  0.0mm CLR
13:15 65.1 °F /  18.4 °C 54.7 °F /  12.6 °C 29.8in /  1008.3hPa NNE 3.1mph /  5.0km/h 6.9mph /  11.1km/h 69% 0in /  0.0mm CLR
13:20 65.5 °F /  18.6 °C 55 °F /  12.8 °C 29.8in /  1007.9hPa NE 3.1mph /  5.0km/h 3.5mph /  5.6km/h 69% 0in /  0.0mm CLR
13:25 65.7 °F /  18.7 °C 55.2 °F /  12.9 °C 29.8in /  1007.9hPa NW 3.1mph /  5.0km/h 5.8mph /  9.3km/h 69% 0in /  0.0mm CLR
13:30 66 °F /  18.9 °C 54.7 °F /  12.6 °C 29.8in /  1007.9hPa NW 3.1mph /  5.0km/h 4.6mph /  7.4km/h 67% 0in /  0.0mm CLR
13:35 66.6 °F /  19.2 °C 55.2 °F /  12.9 °C 29.8in /  1007.8hPa NNE 3.1mph /  5.0km/h 5.8mph /  9.3km/h 67% 0in /  0.0mm CLR
13:40 66.7 °F /  19.3 °C 54.7 °F /  12.6 °C 29.8in /  1007.8hPa NW 2.9mph /  4.7km/h 5.8mph /  9.3km/h 65% 0in /  0.0mm CLR
13:45 66.9 °F /  19.4 °C 54.9 °F /  12.7 °C 29.8in /  1007.8hPa WNW 2.9mph /  4.7km/h 4.6mph /  7.4km/h 65% 0in /  0.0mm CLR
13:50 66.9 °F /  19.4 °C 54.9 °F /  12.7 °C 29.8in /  1007.5hPa NE 3.6mph /  5.8km/h 5.8mph /  9.3km/h 65% 0in /  0.0mm CLR
13:55 67.5 °F /  19.7 °C 54.9 °F /  12.7 °C 29.8in /  1007.5hPa North 3.6mph /  5.8km/h 8.1mph /  13.0km/h 64% 0in /  0.0mm CLR
14:00 67.6 °F /  19.8 °C 55 °F /  12.8 °C 29.8in /  1007.5hPa North 3mph /  4.8km/h 9mph /  14.5km/h 64% 0in /  0.0mm CLR
14:05 67.6 °F /  19.8 °C 55 °F /  12.8 °C 29.7in /  1006.9hPa NNE 3.6mph /  5.8km/h 8.1mph /  13.0km/h 64% 0in /  0.0mm CLR
14:10 67.5 °F /  19.7 °C 54.3 °F /  12.4 °C 29.7in /  1006.9hPa NE 5.2mph /  8.4km/h 6.9mph /  11.1km/h 63% 0in /  0.0mm CLR
14:15 67.3 °F /  19.6 °C 54.3 °F /  12.4 °C 29.7in /  1006.9hPa ENE 5.2mph /  8.4km/h 5.8mph /  9.3km/h 63% 0in /  0.0mm CLR
14:20 67.5 °F /  19.7 °C 54.3 °F /  12.4 °C 29.7in /  1006.5hPa North 3.6mph /  5.8km/h 6.9mph /  11.1km/h 63% 0in /  0.0mm CLR
14:25 67.6 °F /  19.8 °C 54.1 °F /  12.3 °C 29.7in /  1006.5hPa NW 3.6mph /  5.8km/h 4.7mph /  7.6km/h 62% 0in /  0.0mm CLR
14:30 67.8 °F /  19.9 °C 54.3 °F /  12.4 °C 29.7in /  1006.5hPa NNE 3.6mph /  5.8km/h 8.1mph /  13.0km/h 62% 0in /  0.0mm CLR
14:35 67.8 °F /  19.9 °C 54 °F /  12.2 °C 29.7in /  1006.3hPa NNE 3.6mph /  5.8km/h 6.9mph /  11.1km/h 61% 0in /  0.0mm CLR
14:40 67.8 °F /  19.9 °C 54 °F /  12.2 °C 29.7in /  1006.3hPa NNE 4mph /  6.4km/h 8.1mph /  13.0km/h 61% 0in /  0.0mm CLR
14:45 68 °F /  20.0 °C 54 °F /  12.2 °C 29.7in /  1006.3hPa NE 4mph /  6.4km/h 5.9mph /  9.5km/h 61% 0in /  0.0mm CLR
14:50 68.4 °F /  20.2 °C 54 °F /  12.2 °C 29.7in /  1005.9hPa NE 4.7mph /  7.6km/h 8.1mph /  13.0km/h 60% 0in /  0.0mm CLR
14:55 68.5 °F /  20.3 °C 54.1 °F /  12.3 °C 29.7in /  1005.9hPa ESE 4.7mph /  7.6km/h 4.6mph /  7.4km/h 60% 0in /  0.0mm CLR
15:00 68.9 °F /  20.5 °C 53.4 °F /  11.9 °C 29.7in /  1005.9hPa East 3mph /  4.8km/h 6mph /  9.7km/h 58% 0in /  0.0mm CLR
15:05 69.3 °F /  20.7 °C 53.4 °F /  11.9 °C 29.7in /  1005.6hPa ENE 3.6mph /  5.8km/h 5.4mph /  8.7km/h 57% 0in /  0.0mm CLR
15:10 69.6 °F /  20.9 °C 52.7 °F /  11.5 °C 29.7in /  1005.6hPa SSW 3.1mph /  5.0km/h 8.1mph /  13.0km/h 55% 0in /  0.0mm CLR
15:15 70.2 °F /  21.2 °C 51.3 °F /  10.7 °C 29.7in /  1005.6hPa South 3.1mph /  5.0km/h 12.7mph /  20.4km/h 51% 0in /  0.0mm CLR
15:20 70.5 °F /  21.4 °C 51.1 °F /  10.6 °C 29.7in /  1005.4hPa SSE 7.6mph /  12.2km/h 11.5mph /  18.5km/h 50% 0in /  0.0mm CLR
15:25 71.1 °F /  21.7 °C 50.9 °F /  10.5 °C 29.7in /  1005.4hPa South 7.6mph /  12.2km/h 17.3mph /  27.8km/h 49% 0in /  0.0mm CLR
15:30 71.1 °F /  21.7 °C 50.4 °F /  10.2 °C 29.7in /  1005.4hPa SSE 8.1mph /  13.0km/h 16.1mph /  25.9km/h 48% 0in /  0.0mm CLR
15:35 71.1 °F /  21.7 °C 50.4 °F /  10.2 °C 29.7in /  1005.3hPa SSE 8.1mph /  13.0km/h 12.7mph /  20.4km/h 48% 0in /  0.0mm CLR
15:40 71.2 °F /  21.8 °C 50.5 °F /  10.3 °C 29.7in /  1005.3hPa SE 8.5mph /  13.7km/h 9.2mph /  14.8km/h 48% 0in /  0.0mm CLR
15:45 71.4 °F /  21.9 °C 49.6 °F /  9.8 °C 29.7in /  1005.3hPa ESE 8.5mph /  13.7km/h 13.8mph /  22.2km/h 46% 0in /  0.0mm CLR
15:50 71.8 °F /  22.1 °C 48.7 °F /  9.3 °C 29.7in /  1005.1hPa South 7.4mph /  11.9km/h 13.8mph /  22.2km/h 44% 0in /  0.0mm CLR
15:55 71.8 °F /  22.1 °C 48.7 °F /  9.3 °C 29.7in /  1005.1hPa SSE 7.4mph /  11.9km/h 11.5mph /  18.5km/h 44% 0in /  0.0mm CLR
16:00 71.8 °F /  22.1 °C 48 °F /  8.9 °C 29.7in /  1005.1hPa SSE 9mph /  14.5km/h 13mph /  20.9km/h 43% 0in /  0.0mm CLR
16:05 72.1 °F /  22.3 °C 47.8 °F /  8.8 °C 29.7in /  1004.7hPa SSE 9.2mph /  14.8km/h 19.6mph /  31.5km/h 42% 0in /  0.0mm CLR
16:10 72.1 °F /  22.3 °C 47.1 °F /  8.4 °C 29.7in /  1004.7hPa SE 9.7mph /  15.6km/h 11.5mph /  18.5km/h 41% 0in /  0.0mm CLR
16:15 72.5 °F /  22.5 °C 47.5 °F /  8.6 °C 29.7in /  1004.7hPa SSW 9.7mph /  15.6km/h 11.5mph /  18.5km/h 41% 0in /  0.0mm CLR
16:20 72.7 °F /  22.6 °C 47.7 °F /  8.7 °C 29.7in /  1004.5hPa SE 7.6mph /  12.2km/h 8.1mph /  13.0km/h 41% 0in /  0.0mm CLR
16:25 72.9 °F /  22.7 °C 47.1 °F /  8.4 °C 29.7in /  1004.5hPa SSW 7.6mph /  12.2km/h 10.4mph /  16.7km/h 40% 0in /  0.0mm CLR
16:30 72.9 °F /  22.7 °C 49.1 °F /  9.5 °C 29.7in /  1004.5hPa WSW 5.2mph /  8.4km/h 6.9mph /  11.1km/h 43% 0in /  0.0mm CLR
16:35 72.9 °F /  22.7 °C 49.6 °F /  9.8 °C 29.7in /  1004.5hPa West 5.2mph /  8.4km/h 6.9mph /  11.1km/h 44% 0in /  0.0mm CLR
16:40 72.7 °F /  22.6 °C 49.5 °F /  9.7 °C 29.7in /  1004.5hPa WSW 5.2mph /  8.4km/h 8.1mph /  13.0km/h 44% 0in /  0.0mm CLR
16:45 72.7 °F /  22.6 °C 50.2 °F /  10.1 °C 29.7in /  1004.5hPa WSW 5.2mph /  8.4km/h 4.6mph /  7.4km/h 45% 0in /  0.0mm CLR
16:50 72.5 °F /  22.5 °C 49.3 °F /  9.6 °C 29.7in /  1004.5hPa WNW 4.3mph /  6.9km/h 5.8mph /  9.3km/h 44% 0in /  0.0mm CLR
16:55 72.7 °F /  22.6 °C 50.2 °F /  10.1 °C 29.7in /  1004.5hPa West 4.3mph /  6.9km/h 6.9mph /  11.1km/h 45% 0in /  0.0mm CLR
17:00 72.7 °F /  22.6 °C 49.5 °F /  9.7 °C 29.7in /  1004.5hPa WNW 5mph /  8.0km/h 7mph /  11.3km/h 44% 0in /  0.0mm CLR
17:05 72.5 °F /  22.5 °C 49.3 °F /  9.6 °C 29.7in /  1004.5hPa NW 4.3mph /  6.9km/h 5.8mph /  9.3km/h 44% 0in /  0.0mm CLR
17:10 72.5 °F /  22.5 °C 49.3 °F /  9.6 °C 29.7in /  1004.5hPa NNW 3.6mph /  5.8km/h 4.6mph /  7.4km/h 44% 0in /  0.0mm CLR
17:15 72.5 °F /  22.5 °C 48.7 °F /  9.3 °C 29.7in /  1004.5hPa NNW 3.6mph /  5.8km/h   43% 0in /  0.0mm CLR
17:20 72.7 °F /  22.6 °C 48.9 °F /  9.4 °C 29.7in /  1004.3hPa NNW 2mph /  3.2km/h 4.6mph /  7.4km/h 43% 0in /  0.0mm CLR
17:25 72.7 °F /  22.6 °C 48.9 °F /  9.4 °C 29.7in /  1004.3hPa NW 2mph /  3.2km/h 5.8mph /  9.3km/h 43% 0in /  0.0mm CLR
17:30 72.5 °F /  22.5 °C 48.7 °F /  9.3 °C 29.7in /  1004.3hPa NNE 4mph /  6.4km/h 9.2mph /  14.8km/h 43% 0in /  0.0mm CLR
17:35 72.3 °F /  22.4 °C 48.6 °F /  9.2 °C 29.7in /  1004.7hPa NW 4mph /  6.4km/h 5.8mph /  9.3km/h 43% 0in /  0.0mm CLR
17:40 72.3 °F /  22.4 °C 48.6 °F /  9.2 °C 29.7in /  1004.7hPa NE 4mph /  6.4km/h 2.4mph /  3.9km/h 43% 0in /  0.0mm CLR
17:45 72.7 °F /  22.6 °C 48.4 °F /  9.1 °C 29.7in /  1004.7hPa NW 4mph /  6.4km/h 4.6mph /  7.4km/h 42% 0in /  0.0mm CLR
17:50 72.9 °F /  22.7 °C 48.4 °F /  9.1 °C 29.7in /  1004.9hPa NNW 2mph /  3.2km/h 4.6mph /  7.4km/h 42% 0in /  0.0mm CLR
17:55 72.9 °F /  22.7 °C 48.4 °F /  9.1 °C 29.7in /  1004.9hPa NE 2mph /  3.2km/h 3.6mph /  5.8km/h 42% 0in /  0.0mm CLR
18:00 72.7 °F /  22.6 °C 48.4 °F /  9.1 °C 29.7in /  1004.9hPa North 2mph /  3.2km/h 6mph /  9.7km/h 42% 0in /  0.0mm CLR
18:05 72.7 °F /  22.6 °C 48.4 °F /  9.1 °C 29.7in /  1005.0hPa NW 2.9mph /  4.7km/h 4.7mph /  7.6km/h 42% 0in /  0.0mm CLR
18:10 72.3 °F /  22.4 °C 48.6 °F /  9.2 °C 29.7in /  1005.0hPa NW 2mph /  3.2km/h 2.3mph /  3.7km/h 43% 0in /  0.0mm CLR
18:15 72.3 °F /  22.4 °C 48.6 °F /  9.2 °C 29.7in /  1005.0hPa WNW 2mph /  3.2km/h 4.6mph /  7.4km/h 43% 0in /  0.0mm CLR
18:20 72.1 °F /  22.3 °C 48.4 °F /  9.1 °C 29.7in /  1005.3hPa NW 2.4mph /  3.9km/h 5.8mph /  9.3km/h 43% 0in /  0.0mm CLR
18:25 72 °F /  22.2 °C 48.2 °F /  9.0 °C 29.7in /  1005.3hPa WNW 2.4mph /  3.9km/h 5.8mph /  9.3km/h 43% 0in /  0.0mm CLR
18:30 71.8 °F /  22.1 °C 48 °F /  8.9 °C 29.7in /  1005.3hPa WNW 4mph /  6.4km/h 4.6mph /  7.4km/h 43% 0in /  0.0mm CLR
18:35 71.8 °F /  22.1 °C 48 °F /  8.9 °C 29.7in /  1005.2hPa NW 4mph /  6.4km/h 5.8mph /  9.3km/h 43% 0in /  0.0mm CLR
18:40 71.8 °F /  22.1 °C 48 °F /  8.9 °C 29.7in /  1005.2hPa WNW 4mph /  6.4km/h 6.9mph /  11.1km/h 43% 0in /  0.0mm CLR
18:45 72 °F /  22.2 °C 48.2 °F /  9.0 °C 29.7in /  1005.2hPa SW 4mph /  6.4km/h 5.9mph /  9.5km/h 43% 0in /  0.0mm CLR
18:50 72 °F /  22.2 °C 48.2 °F /  9.0 °C 29.7in /  1005.7hPa SSW 4mph /  6.4km/h 19.6mph /  31.5km/h 43% 0in /  0.0mm CLR
18:55 72.5 °F /  22.5 °C 41.7 °F /  5.4 °C 29.7in /  1005.7hPa WNW 4mph /  6.4km/h 19.6mph /  31.5km/h 33% 0in /  0.0mm CLR
19:00 72.9 °F /  22.7 °C 41.4 °F /  5.2 °C 29.7in /  1005.7hPa SW 13mph /  20.9km/h 29mph /  46.7km/h 32% 0in /  0.0mm CLR
19:05 72.9 °F /  22.7 °C 41.4 °F /  5.2 °C 29.7in /  1006.1hPa SW 12.3mph /  19.8km/h 20.7mph /  33.3km/h 32% 0in /  0.0mm CLR
19:10 72.9 °F /  22.7 °C 42.1 °F /  5.6 °C 29.7in /  1006.1hPa SW 13.5mph /  21.7km/h 18.4mph /  29.6km/h 33% 0in /  0.0mm CLR
19:15 72.7 °F /  22.6 °C 41.9 °F /  5.5 °C 29.7in /  1006.1hPa SW 13.5mph /  21.7km/h 26.5mph /  42.6km/h 33% 0in /  0.0mm CLR
19:20 72.3 °F /  22.4 °C 41.5 °F /  5.3 °C 29.7in /  1006.6hPa SW 12.5mph /  20.1km/h 23mph /  37.0km/h 33% 0in /  0.0mm CLR
19:25 72 °F /  22.2 °C 42.1 °F /  5.6 °C 29.7in /  1006.6hPa SW 12.5mph /  20.1km/h 18.4mph /  29.6km/h 34% 0in /  0.0mm CLR
19:30 71.8 °F /  22.1 °C 42.6 °F /  5.9 °C 29.7in /  1006.6hPa WSW 11.8mph /  19.0km/h 15mph /  24.1km/h 35% 0in /  0.0mm CLR
19:35 71.4 °F /  21.9 °C 43.2 °F /  6.2 °C 29.7in /  1007.1hPa SSW 11.8mph /  19.0km/h 18.4mph /  29.6km/h 36% 0in /  0.0mm CLR
19:40 71.2 °F /  21.8 °C 43.5 °F /  6.4 °C 29.7in /  1007.1hPa South 10.2mph /  16.4km/h 19.6mph /  31.5km/h 37% 0in /  0.0mm CLR
19:45 71.1 °F /  21.7 °C 43.5 °F /  6.4 °C 29.7in /  1007.1hPa West 10.2mph /  16.4km/h 11.5mph /  18.5km/h 37% 0in /  0.0mm CLR
19:50 70.7 °F /  21.5 °C 43.9 °F /  6.6 °C 29.8in /  1007.7hPa SSW 10.7mph /  17.2km/h 17.3mph /  27.8km/h 38% 0in /  0.0mm CLR
19:55 70.3 °F /  21.3 °C 44.2 °F /  6.8 °C 29.8in /  1007.7hPa WSW 10.7mph /  17.2km/h 24.2mph /  38.9km/h 39% 0in /  0.0mm CLR
20:00 70.2 °F /  21.2 °C 44.1 °F /  6.7 °C 29.8in /  1007.7hPa SW 10mph /  16.1km/h 21mph /  33.8km/h 39% 0in /  0.0mm CLR
20:05 70 °F /  21.1 °C 44.4 °F /  6.9 °C 29.8in /  1008.0hPa West 10.7mph /  17.2km/h 10.4mph /  16.7km/h 40% 0in /  0.0mm CLR
20:10 69.6 °F /  20.9 °C 44.2 °F /  6.8 °C 29.8in /  1008.0hPa SW 11.4mph /  18.3km/h 17.3mph /  27.8km/h 40% 0in /  0.0mm CLR
20:15 69.3 °F /  20.7 °C 44.4 °F /  6.9 °C 29.8in /  1008.0hPa SW 11.4mph /  18.3km/h 18.4mph /  29.6km/h 41% 0in /  0.0mm CLR
20:20 69.1 °F /  20.6 °C 44.4 °F /  6.9 °C 29.8in /  1008.5hPa SW 12.3mph /  19.8km/h 21.9mph /  35.2km/h 41% 0in /  0.0mm CLR
20:25 68.9 °F /  20.5 °C 44.2 °F /  6.8 °C 29.8in /  1008.5hPa WSW 12.3mph /  19.8km/h 17.3mph /  27.8km/h 41% 0in /  0.0mm CLR
20:30 68.7 °F /  20.4 °C 44.1 °F /  6.7 °C 29.8in /  1008.5hPa SW 11.2mph /  18.0km/h 20.7mph /  33.3km/h 41% 0in /  0.0mm CLR
20:35 68.7 °F /  20.4 °C 44.1 °F /  6.7 °C 29.8in /  1008.5hPa WSW 11.2mph /  18.0km/h 12.7mph /  20.4km/h 41% 0in /  0.0mm CLR
20:40 68.5 °F /  20.3 °C 43.9 °F /  6.6 °C 29.8in /  1008.5hPa SW 10.7mph /  17.2km/h 23mph /  37.0km/h 41% 0in /  0.0mm CLR
20:45 68.5 °F /  20.3 °C 43.9 °F /  6.6 °C 29.8in /  1008.5hPa SW 10.7mph /  17.2km/h 16.1mph /  25.9km/h 41% 0in /  0.0mm CLR
20:50 68.4 °F /  20.2 °C 43.7 °F /  6.5 °C 29.8in /  1009.2hPa SSW 11.4mph /  18.3km/h 8.1mph /  13.0km/h 41% 0in /  0.0mm CLR
20:55 68.2 °F /  20.1 °C 43.5 °F /  6.4 °C 29.8in /  1009.2hPa SW 11.4mph /  18.3km/h 17.3mph /  27.8km/h 41% 0in /  0.0mm CLR
21:00 68 °F /  20.0 °C 43.3 °F /  6.3 °C 29.8in /  1009.2hPa SW 8mph /  12.9km/h 15mph /  24.1km/h 41% 0in /  0.0mm CLR
21:05 67.8 °F /  19.9 °C 43.9 °F /  6.6 °C 29.8in /  1009.6hPa WSW 8.1mph /  13.0km/h 11.5mph /  18.5km/h 42% 0in /  0.0mm CLR
21:10 67.6 °F /  19.8 °C 43.7 °F /  6.5 °C 29.8in /  1009.6hPa SW 7.4mph /  11.9km/h 9.2mph /  14.8km/h 42% 0in /  0.0mm CLR
21:15 67.5 °F /  19.7 °C 43.5 °F /  6.4 °C 29.8in /  1009.6hPa WSW 7.4mph /  11.9km/h 12.7mph /  20.4km/h 42% 0in /  0.0mm CLR
21:20 67.5 °F /  19.7 °C 43.5 °F /  6.4 °C 29.8in /  1010.2hPa West 6.4mph /  10.3km/h 11.5mph /  18.5km/h 42% 0in /  0.0mm CLR
21:25 67.3 °F /  19.6 °C 43.3 °F /  6.3 °C 29.8in /  1010.2hPa West 6.4mph /  10.3km/h 15mph /  24.1km/h 42% 0in /  0.0mm CLR
21:30 67.1 °F /  19.5 °C 43.2 °F /  6.2 °C 29.8in /  1010.2hPa SW 8.1mph /  13.0km/h 12.7mph /  20.4km/h 42% 0in /  0.0mm CLR
21:35 66.9 °F /  19.4 °C 43.7 °F /  6.5 °C 29.8in /  1010.4hPa West 8.1mph /  13.0km/h 15.2mph /  24.5km/h 43% 0in /  0.0mm CLR
21:40 66.6 °F /  19.2 °C 44.1 °F /  6.7 °C 29.8in /  1010.4hPa WNW 8.5mph /  13.7km/h 13.8mph /  22.2km/h 44% 0in /  0.0mm CLR
21:45 66 °F /  18.9 °C 44.1 °F /  6.7 °C 29.8in /  1010.4hPa SW 8.5mph /  13.7km/h 15mph /  24.1km/h 45% 0in /  0.0mm CLR
21:50 65.7 °F /  18.7 °C 44.2 °F /  6.8 °C 29.8in /  1010.7hPa WNW 8.7mph /  14.0km/h 13.8mph /  22.2km/h 46% 0in /  0.0mm CLR
21:55 65.5 °F /  18.6 °C 44.1 °F /  6.7 °C 29.8in /  1010.7hPa West 8.7mph /  14.0km/h 14mph /  22.5km/h 46% 0in /  0.0mm CLR
22:00 65.1 °F /  18.4 °C 44.4 °F /  6.9 °C 29.8in /  1010.7hPa West 8mph /  12.9km/h 15mph /  24.1km/h 47% 0in /  0.0mm CLR
22:05 64.8 °F /  18.2 °C 44.1 °F /  6.7 °C 29.9in /  1010.9hPa West 8.5mph /  13.7km/h 10.7mph /  17.2km/h 47% 0in /  0.0mm CLR
22:10 64.4 °F /  18.0 °C 44.2 °F /  6.8 °C 29.9in /  1010.9hPa WNW 8.5mph /  13.7km/h 12.7mph /  20.4km/h 48% 0in /  0.0mm CLR
22:15 64.2 °F /  17.9 °C 44.1 °F /  6.7 °C 29.9in /  1010.9hPa NW 8.5mph /  13.7km/h 15mph /  24.1km/h 48% 0in /  0.0mm CLR
22:20 64 °F /  17.8 °C 43.9 °F /  6.6 °C 29.9in /  1011.2hPa NW 9.2mph /  14.8km/h 10.4mph /  16.7km/h 48% 0in /  0.0mm CLR
22:25 63.9 °F /  17.7 °C 43.9 °F /  6.6 °C 29.9in /  1011.2hPa West 9.2mph /  14.8km/h 12.7mph /  20.4km/h 48% 0in /  0.0mm CLR
22:30 63.7 °F /  17.6 °C 43.5 °F /  6.4 °C 29.9in /  1011.2hPa NW 8.1mph /  13.0km/h 10.4mph /  16.7km/h 48% 0in /  0.0mm CLR
22:35 63.3 °F /  17.4 °C 43.3 °F /  6.3 °C 29.9in /  1011.6hPa NW 8.1mph /  13.0km/h 10.4mph /  16.7km/h 48% 0in /  0.0mm CLR
22:40 63 °F /  17.2 °C 43.5 °F /  6.4 °C 29.9in /  1011.6hPa WNW 8.1mph /  13.0km/h 11.5mph /  18.5km/h 49% 0in /  0.0mm CLR
22:45 62.6 °F /  17.0 °C 43.2 °F /  6.2 °C 29.9in /  1011.6hPa WNW 8.1mph /  13.0km/h 12.7mph /  20.4km/h 49% 0in /  0.0mm CLR
22:50 62.2 °F /  16.8 °C 42.8 °F /  6.0 °C 29.9in /  1011.7hPa NW 8.1mph /  13.0km/h 10mph /  16.1km/h 49% 0in /  0.0mm CLR
22:55 62.1 °F /  16.7 °C 43.2 °F /  6.2 °C 29.9in /  1011.7hPa West 8.1mph /  13.0km/h 13.5mph /  21.7km/h 50% 0in /  0.0mm CLR
23:00 61.9 °F /  16.6 °C 43 °F /  6.1 °C 29.9in /  1011.7hPa WNW 8mph /  12.9km/h 16mph /  25.7km/h 50% 0in /  0.0mm CLR
23:05 61.7 °F /  16.5 °C 43 °F /  6.1 °C 29.9in /  1011.9hPa NW 8.5mph /  13.7km/h 9.2mph /  14.8km/h 50% 0in /  0.0mm CLR
23:10 61.7 °F /  16.5 °C 43 °F /  6.1 °C 29.9in /  1011.9hPa WNW 8.7mph /  14.0km/h 9.2mph /  14.8km/h 50% 0in /  0.0mm CLR
23:15 61.7 °F /  16.5 °C 43 °F /  6.1 °C 29.9in /  1011.9hPa West 8.7mph /  14.0km/h 8.1mph /  13.0km/h 50% 0in /  0.0mm CLR
23:20 61.5 °F /  16.4 °C 42.6 °F /  5.9 °C 29.9in /  1012.2hPa West 6.4mph /  10.3km/h 12.7mph /  20.4km/h 50% 0in /  0.0mm CLR
23:25 61.5 °F /  16.4 °C 42.6 °F /  5.9 °C 29.9in /  1012.2hPa West 6.4mph /  10.3km/h 6.9mph /  11.1km/h 50% 0in /  0.0mm CLR
23:30 61.3 °F /  16.3 °C 42.4 °F /  5.8 °C 29.9in /  1012.2hPa WSW 5.9mph /  9.5km/h 9.2mph /  14.8km/h 50% 0in /  0.0mm CLR
23:35 61.5 °F /  16.4 °C 42.6 °F /  5.9 °C 29.9in /  1012.3hPa West 5.9mph /  9.5km/h 7.6mph /  12.2km/h 50% 0in /  0.0mm CLR
23:40 61.3 °F /  16.3 °C 41.5 °F /  5.3 °C 29.9in /  1012.3hPa West 5.2mph /  8.4km/h 10mph /  16.1km/h 48% 0in /  0.0mm CLR
23:45 61.5 °F /  16.4 °C 40.5 °F /  4.7 °C 29.9in /  1012.3hPa WSW 5.2mph /  8.4km/h 12.7mph /  20.4km/h 46% 0in /  0.0mm CLR
23:50 61.5 °F /  16.4 °C 39.4 °F /  4.1 °C 29.9in /  1012.3hPa SW 7.4mph /  11.9km/h 13.8mph /  22.2km/h 44% 0in /  0.0mm CLR
23:55 61.7 °F /  16.5 °C 39 °F /  3.9 °C 29.9in /  1012.3hPa WSW 7.4mph /  11.9km/h 12.7mph /  20.4km/h 43% 0in /  0.0mm CLR
Murcia-Puente Tocinos, España
Compliments of Weather Underground - 2.75 mb

La estación de MeteoMurcia.com, publica sus datos en los siguientes proyectos:

Weather Underground PWS IMURCIAP2 Meteoclimatic www.awekas.at

W3Counter
Web Analytics